Time;durP1;ratioP1;P1;durP2;ratioP2;P2;SDS_P1;SDS_P2;PMS_P1;PMS_P2;Temp;Humidity;BMP_temperature;BMP_pressure;BME280_temperature;BME280_humidity;BME280_pressure;Samples;Min_cycle;Max_cycle;Signal;HPM_P1;HPM_P2
2022/07/08 00:01:28;;;;;;;3.20;0.70;;;;;;;21.33;61.13;102733.34;7385174;19;20010;-66
2022/07/08 00:03:56;;;;;;;2.97;0.80;;;;;;;21.32;60.85;102736.22;7384175;19;20365;-66
2022/07/08 00:06:23;;;;;;;4.05;0.95;;;;;;;21.29;61.44;102739.22;7387947;19;20039;-62
2022/07/08 00:08:50;;;;;;;3.20;0.90;;;;;;;21.26;61.26;102731.56;7392335;19;20039;-64
2022/07/08 00:11:18;;;;;;;4.20;0.95;;;;;;;21.24;61.50;102733.56;7391870;19;20384;-63
2022/07/08 00:13:45;;;;;;;7.25;1.00;;;;;;;21.22;61.80;102731.09;7392322;19;20410;-64
2022/07/08 00:16:12;;;;;;;3.10;1.35;;;;;;;21.19;61.75;102735.94;7390825;19;20035;-65
2022/07/08 00:18:40;;;;;;;4.95;1.08;;;;;;;21.17;62.20;102737.97;7391528;19;20471;-64
2022/07/08 00:21:08;;;;;;;3.08;0.93;;;;;;;21.11;62.54;102731.44;7388632;19;20022;-65
2022/07/08 00:23:35;;;;;;;4.50;1.30;;;;;;;21.10;62.65;102736.94;7388407;19;20006;-65
2022/07/08 00:26:04;;;;;;;5.50;1.40;;;;;;;21.05;62.53;102740.16;7388125;19;20022;-65
2022/07/08 00:28:31;;;;;;;4.43;1.40;;;;;;;21.02;62.68;102742.34;7392684;19;20010;-64
2022/07/08 00:30:58;;;;;;;3.17;1.58;;;;;;;21.00;63.00;102747.03;7385178;19;20022;-64
2022/07/08 00:33:26;;;;;;;3.58;1.75;;;;;;;20.96;63.27;102741.22;7392157;19;20018;-65
2022/07/08 00:35:53;;;;;;;5.57;1.50;;;;;;;20.92;63.29;102738.06;7387317;19;21981;-67
2022/07/08 00:38:20;;;;;;;4.57;1.65;;;;;;;20.88;63.56;102733.19;7390274;19;20038;-65
2022/07/08 00:40:48;;;;;;;6.47;2.03;;;;;;;20.85;63.58;102744.25;7387882;19;20038;-64
2022/07/08 00:43:21;;;;;;;7.20;2.00;;;;;;;20.79;63.81;102737.75;7391804;19;20026;-66
2022/07/08 00:45:48;;;;;;;4.00;1.77;;;;;;;20.77;64.00;102734.44;7389996;19;20031;-66
2022/07/08 00:48:16;;;;;;;6.13;2.50;;;;;;;20.77;64.14;102746.97;7391462;19;20110;-64
2022/07/08 00:50:43;;;;;;;5.95;2.38;;;;;;;20.72;64.23;102747.50;7385491;19;20105;-65
2022/07/08 00:53:10;;;;;;;8.35;2.65;;;;;;;20.68;64.46;102746.16;7389731;19;20023;-67
2022/07/08 00:55:38;;;;;;;6.35;2.88;;;;;;;20.64;64.49;102746.66;7388803;19;20013;-64
2022/07/08 00:58:05;;;;;;;7.65;2.75;;;;;;;20.59;65.12;102743.66;7389682;19;20019;-65
2022/07/08 01:00:33;;;;;;;7.93;2.97;;;;;;;20.56;65.46;102749.38;7391113;19;20042;-65
2022/07/08 01:03:01;;;;;;;6.70;3.60;;;;;;;20.55;65.13;102737.84;7390302;19;20477;-64
2022/07/08 01:05:29;;;;;;;9.07;3.60;;;;;;;20.55;64.95;102745.03;7387898;19;20039;-65
2022/07/08 01:07:56;;;;;;;6.30;4.00;;;;;;;20.55;64.91;102740.50;7390016;19;20086;-65
2022/07/08 01:10:24;;;;;;;7.00;4.03;;;;;;;20.57;64.47;102738.47;7387619;19;20852;-65
2022/07/08 01:12:51;;;;;;;9.40;3.72;;;;;;;20.49;64.79;102738.50;7388355;19;20135;-66
2022/07/08 01:15:21;;;;;;;9.10;3.80;;;;;;;20.44;64.68;102740.88;7386913;19;20023;-67
2022/07/08 01:17:48;;;;;;;9.30;3.90;;;;;;;20.40;64.66;102743.06;7388443;19;20035;-64
2022/07/08 01:20:16;;;;;;;6.95;3.42;;;;;;;20.38;65.19;102746.88;7386979;19;20014;-63
2022/07/08 01:22:44;;;;;;;7.30;3.90;;;;;;;20.35;65.21;102748.09;7387490;19;20034;-65
2022/07/08 01:25:11;;;;;;;8.07;3.85;;;;;;;20.33;65.48;102749.25;7387481;19;20011;-64
2022/07/08 01:27:38;;;;;;;6.72;3.38;;;;;;;20.28;65.66;102755.06;7390194;19;20332;-64
2022/07/08 01:30:07;;;;;;;5.80;3.50;;;;;;;20.26;65.63;102757.09;7388269;19;20022;-63
2022/07/08 01:32:37;;;;;;;5.90;2.65;;;;;;;20.26;65.98;102746.41;7387483;19;20471;-63
2022/07/08 01:35:05;;;;;;;5.30;2.40;;;;;;;20.22;65.41;102757.56;7383927;19;20531;-64
2022/07/08 01:37:33;;;;;;;8.95;2.30;;;;;;;20.17;65.65;102754.56;7387439;19;20046;-64
2022/07/08 01:40:00;;;;;;;5.45;2.42;;;;;;;20.07;66.09;102746.72;7388512;19;20448;-62
2022/07/08 01:42:27;;;;;;;6.60;2.58;;;;;;;20.00;66.70;102756.44;7385819;19;20018;-63
2022/07/08 01:44:55;;;;;;;3.72;2.25;;;;;;;19.95;66.69;102748.91;7389227;19;20052;-64
2022/07/08 01:47:22;;;;;;;4.15;2.42;;;;;;;19.92;66.82;102751.06;7389294;19;20539;-63
2022/07/08 01:49:49;;;;;;;6.97;2.83;;;;;;;19.91;66.91;102750.22;7384782;19;20082;-64
2022/07/08 01:52:17;;;;;;;5.18;2.40;;;;;;;19.86;66.67;102735.72;7386856;19;20038;-64
2022/07/08 01:54:44;;;;;;;7.10;2.55;;;;;;;19.82;67.03;102731.69;7387042;19;20460;-64
2022/07/08 01:59:43;;;;;;;10.70;2.47;;;;;;;19.74;67.63;102742.38;7388935;19;20010;-62
2022/07/08 02:02:11;;;;;;;7.32;2.88;;;;;;;19.69;67.72;102740.22;7385353;19;20011;-63
2022/07/08 02:04:40;;;;;;;6.90;2.60;;;;;;;19.68;67.56;102740.38;7385884;19;20022;-62
2022/07/08 02:07:08;;;;;;;6.70;2.53;;;;;;;19.67;67.97;102744.03;7384434;19;20368;-63
2022/07/08 02:09:36;;;;;;;4.38;2.63;;;;;;;19.63;67.80;102743.53;7386161;19;20019;-64
2022/07/08 02:14:35;;;;;;;3.80;2.47;;;;;;;19.60;68.58;102735.88;7387622;19;20035;-64
2022/07/08 02:17:03;;;;;;;4.22;2.13;;;;;;;19.58;68.13;102738.69;7387746;19;20007;-64
2022/07/08 02:19:31;;;;;;;7.40;2.65;;;;;;;19.57;68.32;102739.69;7386574;19;20622;-64
2022/07/08 02:21:59;;;;;;;7.20;2.55;;;;;;;19.54;68.54;102744.53;7384444;19;20022;-64
2022/07/08 02:24:27;;;;;;;6.47;2.47;;;;;;;19.49;68.71;102737.00;7385667;19;20498;-64
2022/07/08 02:26:54;;;;;;;6.13;2.40;;;;;;;19.45;68.71;102737.50;7384952;19;20340;-64
2022/07/08 02:29:21;;;;;;;4.78;2.67;;;;;;;19.41;69.10;102741.44;7385560;19;20014;-63
2022/07/08 02:31:49;;;;;;;5.13;1.85;;;;;;;19.34;69.18;102743.13;7385256;19;20022;-64
2022/07/08 02:34:16;;;;;;;5.30;2.78;;;;;;;19.29;69.50;102735.59;7386585;19;20531;-62
2022/07/08 02:36:43;;;;;;;4.55;2.53;;;;;;;19.26;69.60;102722.56;7378300;19;20066;-64
2022/07/08 02:39:12;;;;;;;6.95;2.72;;;;;;;19.22;69.72;102730.06;7386634;19;20018;-62
2022/07/08 02:41:41;;;;;;;6.82;2.78;;;;;;;19.21;70.06;102738.22;7386196;19;20047;-63
2022/07/08 02:44:09;;;;;;;6.05;2.58;;;;;;;19.18;69.92;102736.72;7386454;19;20018;-65
2022/07/08 02:46:38;;;;;;;5.30;2.58;;;;;;;19.17;69.93;102736.88;7385018;19;20124;-64
2022/07/08 02:49:05;;;;;;;5.82;2.55;;;;;;;19.18;69.90;102738.56;7385745;19;20054;-64
2022/07/08 02:51:33;;;;;;;6.88;2.80;;;;;;;19.18;70.00;102731.41;7380235;19;20044;-63
2022/07/08 02:54:00;;;;;;;6.07;3.13;;;;;;;19.15;70.02;102737.03;7385253;19;20440;-64
2022/07/08 02:56:29;;;;;;;4.30;2.92;;;;;;;19.10;70.34;102730.50;7386264;19;20018;-64
2022/07/08 02:59:02;;;;;;;4.57;2.75;;;;;;;19.09;70.35;102737.72;7388138;19;20565;-63
2022/07/08 03:01:31;;;;;;;11.00;4.05;;;;;;;19.05;70.49;102732.81;7384204;19;20011;-63
2022/07/08 03:03:58;;;;;;;5.75;2.97;;;;;;;19.00;70.85;102730.66;7385209;19;20007;-63
2022/07/08 03:06:26;;;;;;;5.50;3.03;;;;;;;18.97;71.26;102724.81;7381455;19;20025;-62
2022/07/08 03:08:58;;;;;;;7.53;2.85;;;;;;;18.97;71.31;102728.31;7383493;19;20014;-63
2022/07/08 03:11:27;;;;;;;6.15;3.20;;;;;;;18.93;71.33;102715.47;7382460;19;20662;-64
2022/07/08 03:13:54;;;;;;;9.65;3.35;;;;;;;18.92;71.33;102713.78;7386061;19;20353;-63
2022/07/08 03:16:21;;;;;;;6.45;3.30;;;;;;;18.88;71.54;102723.94;7384140;19;20017;-62
2022/07/08 03:18:49;;;;;;;8.27;3.83;;;;;;;18.84;71.57;102721.75;7385609;19;20018;-64
2022/07/08 03:21:17;;;;;;;6.65;3.80;;;;;;;18.83;71.51;102728.09;7381548;19;20015;-64
2022/07/08 03:23:44;;;;;;;7.28;4.00;;;;;;;18.79;71.80;102728.38;7386370;19;20454;-63
2022/07/08 03:26:11;;;;;;;8.55;3.30;;;;;;;18.79;71.91;102732.91;7383727;19;20018;-65
2022/07/08 03:28:38;;;;;;;5.90;3.40;;;;;;;18.78;72.21;102723.22;7386937;19;20427;-64
2022/07/08 03:31:06;;;;;;;7.75;3.95;;;;;;;18.75;72.04;102727.03;7383158;19;20022;-64
2022/07/08 03:33:33;;;;;;;9.00;4.45;;;;;;;18.74;72.33;102722.69;7385778;19;20368;-63
2022/07/08 03:36:01;;;;;;;7.10;3.78;;;;;;;18.76;72.45;102731.38;7382621;19;20022;-64
2022/07/08 03:38:28;;;;;;;6.07;3.55;;;;;;;18.77;72.41;102724.22;7385297;19;20129;-64
2022/07/08 03:43:26;;;;;;;11.43;4.88;;;;;;;18.75;72.36;102728.88;7382736;19;20459;-64
2022/07/08 03:45:53;;;;;;;7.60;4.65;;;;;;;18.68;72.52;102736.69;7384323;19;20035;-64
2022/07/08 03:48:21;;;;;;;10.18;5.32;;;;;;;18.65;72.91;102734.31;7385134;19;20423;-63
2022/07/08 03:50:48;;;;;;;7.30;4.53;;;;;;;18.62;73.08;102733.81;7380590;19;20019;-62
2022/07/08 03:53:15;;;;;;;11.45;5.40;;;;;;;18.60;72.92;102746.47;7383649;19;20042;-63
2022/07/08 03:55:43;;;;;;;11.75;5.97;;;;;;;18.53;73.53;102743.56;7382931;19;20014;-64
2022/07/08 03:58:10;;;;;;;9.70;5.13;;;;;;;18.47;73.30;102738.88;7383359;19;20025;-64
2022/07/08 04:00:37;;;;;;;11.00;5.28;;;;;;;18.45;74.03;102754.16;7384171;19;20083;-64
2022/07/08 04:03:05;;;;;;;11.35;5.07;;;;;;;18.39;74.25;102750.31;7382234;19;20043;-63
2022/07/08 04:05:32;;;;;;;10.75;5.20;;;;;;;18.35;74.24;102758.78;7381791;19;20361;-64
2022/07/08 04:07:59;;;;;;;9.27;5.22;;;;;;;18.28;74.46;102749.75;7382174;19;20021;-66
2022/07/08 04:10:27;;;;;;;11.13;5.40;;;;;;;18.25;74.93;102750.03;7382182;19;20014;-64
2022/07/08 04:12:54;;;;;;;9.35;5.03;;;;;;;18.24;74.79;102757.19;7381677;19;20044;-63
2022/07/08 04:15:22;;;;;;;8.90;5.00;;;;;;;18.24;74.93;102756.34;7383070;19;20022;-63
2022/07/08 04:17:52;;;;;;;8.70;4.85;;;;;;;18.21;74.87;102756.66;7382958;19;20011;-62
2022/07/08 04:20:20;;;;;;;10.48;5.43;;;;;;;18.18;74.99;102760.50;7382379;19;20025;-63
2022/07/08 04:22:47;;;;;;;10.95;5.28;;;;;;;18.17;75.00;102771.31;7380799;19;20010;-63
2022/07/08 04:25:15;;;;;;;13.52;5.93;;;;;;;18.15;75.05;102779.44;7380768;19;20372;-63
2022/07/08 04:27:42;;;;;;;9.00;5.30;;;;;;;18.09;75.66;102772.06;7383866;19;20062;-62
2022/07/08 04:30:10;;;;;;;9.05;5.13;;;;;;;18.05;75.92;102780.50;7382537;19;20018;-64
2022/07/08 04:32:37;;;;;;;9.77;5.05;;;;;;;17.98;76.25;102782.13;7384939;19;20011;-64
2022/07/08 04:35:05;;;;;;;10.82;4.97;;;;;;;17.94;76.54;102778.91;7381144;19;20113;-63
2022/07/08 04:37:33;;;;;;;10.57;4.95;;;;;;;17.94;76.84;102776.25;7381349;19;20007;-63
2022/07/08 04:40:00;;;;;;;8.60;4.43;;;;;;;17.86;77.17;102779.69;7381628;19;20526;-64
2022/07/08 04:42:27;;;;;;;9.27;4.18;;;;;;;17.88;77.18;102783.03;7383777;19;20017;-64
2022/07/08 04:44:55;;;;;;;9.07;4.32;;;;;;;17.90;77.04;102773.06;7383187;19;20015;-63
2022/07/08 04:47:22;;;;;;;7.22;4.28;;;;;;;17.90;77.24;102774.91;7382793;19;20034;-63
2022/07/08 04:49:51;;;;;;;6.93;4.38;;;;;;;17.89;77.36;102782.03;7382303;19;20430;-63
2022/07/08 04:52:18;;;;;;;7.72;4.68;;;;;;;17.90;77.50;102782.88;7382031;19;20017;-65
2022/07/08 04:54:46;;;;;;;9.25;5.03;;;;;;;17.90;77.34;102782.88;7390714;19;20014;-63
2022/07/08 04:57:13;;;;;;;8.50;4.78;;;;;;;17.92;77.20;102784.44;7388986;19;20014;-64
2022/07/08 04:59:40;;;;;;;6.30;3.90;;;;;;;17.92;77.23;102783.59;7390643;19;20014;-64
2022/07/08 05:02:08;;;;;;;7.53;4.60;;;;;;;17.94;77.36;102789.56;7389857;19;20345;-63
2022/07/08 05:04:35;;;;;;;6.95;4.30;;;;;;;17.97;77.40;102783.97;7389271;19;20031;-64
2022/07/08 05:07:03;;;;;;;5.85;4.00;;;;;;;17.96;77.16;102779.63;7387506;19;20081;-65
2022/07/08 05:09:30;;;;;;;8.98;4.20;;;;;;;17.98;77.34;102776.81;7389248;19;20011;-64
2022/07/08 05:11:58;;;;;;;9.15;4.50;;;;;;;18.00;76.86;102778.31;7384881;19;20064;-64
2022/07/08 05:14:25;;;;;;;9.32;3.75;;;;;;;18.02;77.10;102787.00;7390681;19;20014;-64
2022/07/08 05:16:52;;;;;;;9.88;4.30;;;;;;;18.02;77.08;102784.34;7389136;19;20034;-64
2022/07/08 05:19:20;;;;;;;11.23;4.43;;;;;;;17.97;77.09;102786.63;7389927;19;20038;-64
2022/07/08 05:21:47;;;;;;;8.68;4.18;;;;;;;17.99;77.26;102789.13;7387871;19;20432;-64
2022/07/08 05:24:14;;;;;;;10.20;4.03;;;;;;;18.00;77.20;102790.78;7389181;19;20475;-64
2022/07/08 05:26:42;;;;;;;8.43;4.20;;;;;;;18.01;77.21;102793.31;7386289;19;20529;-64
2022/07/08 05:29:09;;;;;;;6.40;3.70;;;;;;;18.04;77.01;102794.81;7389942;19;20478;-63
2022/07/08 05:31:37;;;;;;;8.07;3.97;;;;;;;18.06;76.85;102796.34;7386741;19;20018;-63
2022/07/08 05:34:05;;;;;;;7.30;4.05;;;;;;;18.08;76.97;102791.69;7388775;19;20018;-63
2022/07/08 05:36:32;;;;;;;6.97;3.70;;;;;;;18.11;76.75;102783.41;7386282;19;20091;-64
2022/07/08 05:39:01;;;;;;;8.15;4.03;;;;;;;18.13;76.79;102786.78;7388949;19;20016;-63
2022/07/08 05:41:28;;;;;;;6.63;3.28;;;;;;;18.15;76.91;102790.09;7388871;19;20014;-66
2022/07/08 05:43:56;;;;;;;7.22;3.65;;;;;;;18.20;76.86;102797.63;7387907;19;20015;-63
2022/07/08 05:46:23;;;;;;;7.40;3.45;;;;;;;18.22;76.51;102801.00;7389493;19;20026;-64
2022/07/08 05:48:50;;;;;;;6.22;3.95;;;;;;;18.23;76.70;102802.69;7389234;19;20018;-67
2022/07/08 05:51:18;;;;;;;8.13;3.92;;;;;;;18.24;76.72;102805.16;7383869;19;20631;-63
2022/07/08 05:53:45;;;;;;;7.68;3.53;;;;;;;18.24;76.74;102804.31;7386745;19;20014;-63
2022/07/08 05:56:17;;;;;;;6.93;3.72;;;;;;;18.29;76.66;102810.03;7389004;19;20018;-64
2022/07/08 05:58:44;;;;;;;8.77;3.20;;;;;;;18.32;76.62;102813.25;7389231;19;20018;-62
2022/07/08 06:01:17;;;;;;;9.15;3.67;;;;;;;18.39;77.18;102810.78;7389288;19;20038;-65
2022/07/08 06:03:44;;;;;;;5.90;3.35;;;;;;;18.44;76.18;102816.47;7384257;19;20474;-63
2022/07/08 06:06:11;;;;;;;6.85;3.35;;;;;;;18.47;75.91;102812.69;7386591;19;20019;-64
2022/07/08 06:08:39;;;;;;;4.75;2.70;;;;;;;18.49;75.60;102818.72;7386808;19;20010;-65
2022/07/08 06:11:07;;;;;;;6.63;3.03;;;;;;;18.53;75.81;102812.91;7384085;19;20021;-63
2022/07/08 06:13:34;;;;;;;5.63;2.80;;;;;;;18.57;75.66;102810.78;7388105;19;20029;-64
2022/07/08 06:16:01;;;;;;;7.07;4.18;;;;;;;18.63;75.40;102812.84;7387552;19;20079;-62
2022/07/08 06:18:29;;;;;;;5.25;2.65;;;;;;;18.66;75.40;102805.34;7388140;19;20725;-64
2022/07/08 06:20:57;;;;;;;8.70;2.92;;;;;;;18.72;75.44;102817.22;7385859;19;20018;-63
2022/07/08 06:23:24;;;;;;;6.47;2.30;;;;;;;18.78;74.98;102814.78;7385955;19;20019;-63
2022/07/08 06:25:51;;;;;;;7.15;2.17;;;;;;;18.82;74.62;102815.28;7386309;19;20014;-64
2022/07/08 06:28:19;;;;;;;6.20;2.65;;;;;;;18.86;74.87;102818.47;7388751;19;20362;-63
2022/07/08 06:30:47;;;;;;;5.63;2.50;;;;;;;18.91;74.62;102822.34;7386370;19;20015;-64
2022/07/08 06:33:14;;;;;;;4.03;2.00;;;;;;;18.96;74.17;102822.69;7388136;19;20042;-63
2022/07/08 06:35:41;;;;;;;4.65;2.28;;;;;;;19.12;74.15;102820.13;7382863;19;20081;-63
2022/07/08 06:38:09;;;;;;;3.38;1.67;;;;;;;19.34;73.28;102817.88;7384756;19;20010;-65
2022/07/08 06:40:37;;;;;;;3.90;2.03;;;;;;;19.41;73.09;102822.41;7383999;19;20042;-65
2022/07/08 06:43:04;;;;;;;3.33;1.77;;;;;;;19.45;72.90;102815.78;7387221;19;20022;-65
2022/07/08 06:45:32;;;;;;;5.68;1.80;;;;;;;19.47;73.06;102824.47;7383676;19;20126;-64
2022/07/08 06:48:00;;;;;;;5.25;2.15;;;;;;;19.46;72.67;102827.28;7387661;19;20120;-64
2022/07/08 06:50:28;;;;;;;4.72;1.73;;;;;;;19.47;72.53;102820.94;7381295;19;20021;-64
2022/07/08 06:52:56;;;;;;;4.55;1.73;;;;;;;19.47;72.63;102819.13;7383288;19;20018;-63
2022/07/08 06:55:23;;;;;;;3.72;1.80;;;;;;;19.48;72.39;102812.78;7383730;19;20019;-64
2022/07/08 06:57:50;;;;;;;5.82;1.98;;;;;;;19.52;72.43;102824.81;7387556;19;20018;-63
2022/07/08 07:00:21;;;;;;;2.65;1.38;;;;;;;19.56;72.95;102817.28;7384514;19;20019;-64
2022/07/08 07:03:06;;;;;;;4.57;1.80;;;;;;;19.58;72.26;102818.81;7385661;19;20051;-64
2022/07/08 07:05:42;;;;;;;6.93;1.67;;;;;;;19.62;71.84;102822.00;7383432;19;20470;-64
2022/07/08 07:12:35;;;;;;;2.55;1.30;;;;;;;19.65;71.60;102821.69;7383391;19;19991;-64
2022/07/08 07:15:11;;;;;;;2.60;1.10;;;;;;;19.68;72.28;102820.50;7380154;19;20285;-64
2022/07/08 07:17:42;;;;;;;4.25;1.65;;;;;;;19.69;72.32;102822.19;7384399;19;20035;-64
2022/07/08 07:20:10;;;;;;;5.00;1.77;;;;;;;19.72;71.70;102814.66;7382572;19;20018;-62
2022/07/08 07:22:40;;;;;;;4.10;1.38;;;;;;;19.75;71.69;102817.03;7383543;19;20038;-64
2022/07/08 07:25:16;;;;;;;5.50;1.55;;;;;;;19.79;71.71;102809.53;7382832;19;20059;-64
2022/07/08 07:27:43;;;;;;;;;;;;;;;19.84;72.41;102807.19;7384858;19;20117;-65
2022/07/08 07:30:11;;;;;;;3.65;1.58;;;;;;;19.86;71.90;102808.69;7386244;19;20248;-65
2022/07/08 07:32:38;;;;;;;4.10;1.60;;;;;;;19.92;71.41;102815.22;7384446;19;20344;-66
2022/07/08 07:35:06;;;;;;;3.40;1.00;;;;;;;19.96;71.08;102817.38;7382912;19;20025;-67
2022/07/08 07:37:36;;;;;;;4.57;1.40;;;;;;;20.01;71.52;102817.72;7382312;19;20050;-68
2022/07/08 07:40:05;;;;;;;4.70;1.42;;;;;;;20.08;71.51;102820.56;7382032;19;20346;-67
2022/07/08 07:42:39;;;;;;;5.90;1.77;;;;;;;20.18;70.61;102817.72;7328911;19;20018;-66
2022/07/08 07:45:12;;;;;;;4.53;1.25;;;;;;;20.37;69.93;102830.78;7378802;19;20336;-66
2022/07/08 07:47:48;;;;;;;5.90;1.30;;;;;;;20.66;69.42;102831.13;7383699;19;20034;-67
2022/07/08 07:50:20;;;;;;;5.38;1.40;;;;;;;20.95;68.27;102832.38;7379355;19;20014;-65
2022/07/08 07:52:51;;;;;;;2.53;1.40;;;;;;;21.17;67.50;102843.25;7380837;19;20060;-66
2022/07/08 07:55:22;;;;;;;4.20;1.80;;;;;;;21.27;65.66;102838.53;7381998;19;20045;-65
2022/07/08 07:58:09;;;;;;;3.92;1.60;;;;;;;21.30;65.73;102829.28;7382470;19;20010;-66
2022/07/08 08:01:17;;;;;;;5.28;1.27;;;;;;;21.29;66.07;102833.81;7382553;19;20010;-66
2022/07/08 08:04:18;;;;;;;4.63;1.52;;;;;;;21.27;66.85;102825.13;7380172;19;20606;-66
2022/07/08 08:07:14;;;;;;;2.53;1.60;;;;;;;21.23;65.60;102822.97;7377529;19;20022;-65
2022/07/08 08:09:50;;;;;;;3.78;1.50;;;;;;;21.20;65.75;102823.31;7379156;19;20495;-65
2022/07/08 08:12:34;;;;;;;3.83;1.60;;;;;;;21.13;66.45;102822.31;7379761;19;20013;-64
2022/07/08 08:15:22;;;;;;;3.80;1.30;;;;;;;21.09;67.03;102820.97;7381174;19;20010;-66
2022/07/08 08:18:09;;;;;;;6.00;1.30;;;;;;;21.05;67.11;102815.13;7381389;19;20010;-65
2022/07/08 08:20:37;;;;;;;4.57;1.77;;;;;;;21.05;67.06;102820.47;7381859;19;20360;-65
2022/07/08 08:23:04;;;;;;;4.90;1.30;;;;;;;21.07;66.31;102821.16;7379334;19;20025;-66
2022/07/08 08:25:50;;;;;;;4.97;1.00;;;;;;;21.09;66.68;102823.63;7380856;19;20057;-66
2022/07/08 08:28:17;;;;;;;4.93;1.80;;;;;;;21.10;65.99;102822.63;7390058;19;20015;-66
2022/07/08 08:30:45;;;;;;;4.00;1.27;;;;;;;21.13;66.08;102820.44;7388461;19;20007;-66
2022/07/08 08:33:12;;;;;;;4.72;1.40;;;;;;;21.18;66.21;102822.66;7388554;19;20338;-66
2022/07/08 08:35:40;;;;;;;5.38;1.95;;;;;;;21.21;66.24;102808.91;7385851;19;20079;-66
2022/07/08 08:38:07;;;;;;;3.78;2.00;;;;;;;21.26;66.35;102826.13;7390538;19;20037;-65
2022/07/08 08:40:38;;;;;;;4.00;1.77;;;;;;;21.30;65.42;102818.56;7387621;19;20015;-65
2022/07/08 08:43:05;;;;;;;6.70;2.60;;;;;;;21.40;71.99;102813.84;7388411;19;20052;-63
2022/07/08 08:45:44;;;;;;;7.18;2.13;;;;;;;21.49;74.28;102818.13;7389344;19;20349;-62
2022/07/08 08:48:17;;;;;;;7.18;2.17;;;;;;;21.47;68.82;102805.94;7389174;19;20393;-63
2022/07/08 08:53:27;;;;;;;6.13;1.80;;;;;;;21.49;65.25;102810.09;7384395;19;20014;-64
2022/07/08 08:55:59;;;;;;;4.63;2.38;;;;;;;21.53;64.33;102810.59;7389168;19;20025;-63
2022/07/08 08:58:46;;;;;;;8.03;2.33;;;;;;;21.56;63.52;102811.06;7387616;19;20014;-63
2022/07/08 09:01:18;;;;;;;5.68;2.00;;;;;;;21.57;64.07;102804.72;7388074;19;20034;-63
2022/07/08 09:03:47;;;;;;;5.55;1.75;;;;;;;21.61;64.47;102815.91;7328929;19;20046;-63
2022/07/08 09:06:29;;;;;;;6.75;2.00;;;;;;;21.65;64.32;102801.13;7375204;19;20338;-62
2022/07/08 09:09:08;;;;;;;5.65;1.92;;;;;;;21.67;63.33;102810.69;7386075;19;20029;-61
2022/07/08 09:11:36;;;;;;;3.83;1.40;;;;;;;21.68;63.10;102809.69;7388007;19;20011;-62
2022/07/08 09:15:01;;;;;;;8.93;2.10;;;;;;;21.76;64.35;102812.28;7386531;19;20523;-65
2022/07/08 09:17:43;;;;;;;4.53;1.63;;;;;;;21.84;63.76;102805.22;7387593;19;20034;-62
2022/07/08 09:20:11;;;;;;;7.78;1.77;;;;;;;21.90;62.93;102804.47;7383944;19;20011;-63
2022/07/08 09:22:38;;;;;;;12.02;5.15;;;;;;;21.94;62.87;102803.16;7388775;19;20363;-63
2022/07/08 09:25:06;;;;;;;12.20;5.78;;;;;;;22.00;62.40;102803.25;7382900;19;20018;-64
2022/07/08 09:27:33;;;;;;;3.88;1.80;;;;;;;22.08;61.95;102800.53;7388671;19;20021;-64
2022/07/08 09:30:05;;;;;;;3.45;1.60;;;;;;;22.15;62.37;102806.00;7387015;19;20018;-64
2022/07/08 09:32:33;;;;;;;3.72;1.38;;;;;;;22.21;62.41;102807.13;7386463;19;20405;-65
2022/07/08 09:35:01;;;;;;;5.88;2.83;;;;;;;22.30;63.22;102795.34;7382501;19;20039;-64
2022/07/08 09:37:31;;;;;;;5.78;1.65;;;;;;;22.38;62.81;102803.28;7381572;19;20086;-65
2022/07/08 09:39:59;;;;;;;5.18;1.33;;;;;;;22.47;61.53;102805.72;7385031;19;20045;-64
2022/07/08 09:42:44;;;;;;;7.22;2.38;;;;;;;22.59;61.96;102793.53;7385623;19;20039;-64
2022/07/08 09:45:21;;;;;;;4.72;1.40;;;;;;;22.71;61.78;102804.66;7384360;19;20660;-66
2022/07/08 09:48:02;;;;;;;4.82;1.73;;;;;;;22.85;62.02;102797.66;7384956;19;20022;-66
2022/07/08 09:50:33;;;;;;;8.68;4.18;;;;;;;22.96;63.09;102805.22;7372210;19;20494;-66
2022/07/08 09:53:25;;;;;;;7.22;2.05;;;;;;;23.07;62.77;102807.44;7382617;19;20089;-64
2022/07/08 09:55:56;;;;;;;5.65;1.67;;;;;;;23.19;61.56;102803.28;7384273;19;20309;-64
2022/07/08 09:58:32;;;;;;;6.00;1.40;;;;;;;23.30;60.01;102810.84;7386753;19;20031;-66
2022/07/08 10:01:10;;;;;;;6.65;1.38;;;;;;;23.40;59.87;102795.28;7384714;19;20035;-66
2022/07/08 10:06:43;;;;;;;4.18;1.65;;;;;;;23.56;59.94;102796.09;7377765;19;20013;-67
2022/07/08 10:09:11;;;;;;;4.88;1.67;;;;;;;23.63;59.44;102789.75;7387011;19;20022;-66
2022/07/08 10:11:38;;;;;;;1.90;1.00;;;;;;;23.67;59.29;102792.91;7384365;19;20018;-66
2022/07/08 10:14:08;;;;;;;4.22;1.05;;;;;;;23.78;59.22;102793.22;7388473;19;20013;-66
2022/07/08 10:16:38;;;;;;;4.30;1.20;;;;;;;23.88;58.58;102799.09;7383980;19;20010;-66
2022/07/08 10:19:13;;;;;;;3.20;1.20;;;;;;;23.96;58.18;102790.09;7383435;19;20022;-65
2022/07/08 10:21:45;;;;;;;2.75;1.23;;;;;;;24.04;58.59;102784.56;7381992;19;20018;-66
2022/07/08 10:24:17;;;;;;;4.13;1.33;;;;;;;24.11;58.15;102790.00;7382445;19;20709;-66
2022/07/08 10:26:45;;;;;;;3.13;0.90;;;;;;;24.19;58.36;102789.91;7381693;19;20022;-65
2022/07/08 10:29:13;;;;;;;2.85;1.02;;;;;;;24.26;58.08;102791.63;7384287;19;20550;-65
2022/07/08 10:31:46;;;;;;;4.28;0.70;;;;;;;24.31;57.72;102790.22;7383296;19;20119;-65
2022/07/08 10:34:19;;;;;;;4.63;1.10;;;;;;;24.32;57.77;102787.31;7382348;19;20420;-66
2022/07/08 10:36:50;;;;;;;3.67;1.40;;;;;;;24.32;58.07;102786.50;7380584;19;20021;-65
2022/07/08 10:39:24;;;;;;;4.70;0.80;;;;;;;24.38;57.94;102788.41;7386214;19;20073;-65
2022/07/08 10:41:56;;;;;;;4.25;0.73;;;;;;;24.46;57.31;102783.69;7384869;19;20131;-65
2022/07/08 10:44:30;;;;;;;6.13;1.00;;;;;;;24.59;56.36;102796.41;7382913;19;20017;-65
2022/07/08 10:47:09;;;;;;;3.28;0.82;;;;;;;24.59;56.29;102777.56;7386092;19;20022;-65
2022/07/08 10:49:42;;;;;;;4.68;0.65;;;;;;;24.57;56.55;102775.09;7381960;19;20007;-65
2022/07/08 10:52:09;;;;;;;3.35;0.70;;;;;;;24.54;56.27;102777.31;7381050;19;20150;-66
2022/07/08 10:54:37;;;;;;;2.35;0.70;;;;;;;24.59;56.72;102773.00;7384210;19;20018;-66
2022/07/08 10:57:12;;;;;;;2.08;0.60;;;;;;;24.59;56.08;102769.47;7383973;19;20015;-66
2022/07/08 10:59:39;;;;;;;2.75;0.60;;;;;;;24.50;56.34;102774.19;7383556;19;20025;-64
2022/07/08 11:02:13;;;;;;;2.92;0.50;;;;;;;24.42;56.79;102778.91;7383816;19;20376;-66
2022/07/08 11:04:44;;;;;;;7.50;4.18;;;;;;;24.35;56.22;102764.56;7385071;19;20018;-65
2022/07/08 11:07:15;;;;;;;2.25;1.33;;;;;;;24.34;57.16;102768.25;7382250;19;20014;-65
2022/07/08 11:09:46;;;;;;;1.50;0.60;;;;;;;24.37;57.42;102763.34;7383913;19;20020;-66
2022/07/08 11:12:15;;;;;;;1.75;0.60;;;;;;;24.45;56.25;102767.72;7384401;19;20020;-67
2022/07/08 11:14:44;;;;;;;1.83;0.60;;;;;;;24.49;55.82;102760.91;7383574;19;20018;-65
2022/07/08 11:17:17;;;;;;;3.40;0.50;;;;;;;24.55;56.08;102773.59;7383599;19;20045;-66
2022/07/08 11:19:46;;;;;;;1.30;0.40;;;;;;;24.63;55.96;102778.84;7384164;19;20034;-66
2022/07/08 11:22:14;;;;;;;1.27;0.35;;;;;;;24.65;55.90;102774.91;7382931;19;20012;-62
2022/07/08 11:24:54;;;;;;;1.27;0.40;;;;;;;24.63;55.58;102765.38;7383150;19;20033;-64
2022/07/08 11:27:26;;;;;;;2.00;0.95;;;;;;;24.53;55.67;102756.81;7382638;19;20082;-64
2022/07/08 11:29:55;;;;;;;1.33;0.47;;;;;;;24.51;56.04;102750.78;7383985;19;20026;-67
2022/07/08 11:32:24;;;;;;;2.05;0.35;;;;;;;24.57;55.54;102747.31;7383427;19;20018;-65
2022/07/08 11:34:54;;;;;;;2.58;0.68;;;;;;;24.53;55.94;102743.38;7383690;19;20014;-65
2022/07/08 11:37:22;;;;;;;0.60;0.30;;;;;;;24.46;55.92;102748.69;7380121;19;20420;-65
2022/07/08 11:39:50;;;;;;;0.93;0.40;;;;;;;24.43;56.06;102741.00;7382721;19;20086;-65
2022/07/08 11:42:17;;;;;;;3.65;0.77;;;;;;;24.41;56.63;102735.00;7383088;19;20011;-65
2022/07/08 11:44:46;;;;;;;1.20;0.40;;;;;;;24.44;56.66;102744.53;7382651;19;20019;-65
2022/07/08 11:47:18;;;;;;;1.23;0.43;;;;;;;24.54;56.52;102750.38;7382580;19;20014;-66
2022/07/08 11:49:51;;;;;;;;;;;;;;;24.63;54.55;102755.44;7383615;19;20013;-66
2022/07/08 11:52:19;;;;;;;1.83;0.30;;;;;;;24.72;54.48;102745.34;7381868;19;19929;-67
2022/07/08 11:54:47;;;;;;;1.52;0.38;;;;;;;24.81;53.71;102754.06;7382850;19;20011;-65